Time;durP1;ratioP1;P1;durP2;ratioP2;P2;SDS_P1;SDS_P2;PMS_P1;PMS_P2;Temp;Humidity;BMP_temperature;BMP_pressure;BME280_temperature;BME280_humidity;BME280_pressure;Samples;Min_cycle;Max_cycle;Signal;HPM_P1;HPM_P2
2022/10/03 00:01:28;;;;;;;3.83;1.80;;;;;;;;;;5095386;28;20638;-83
2022/10/03 00:04:09;;;;;;;3.50;1.85;;;;;;;;;;5094962;28;20775;-82
2022/10/03 00:06:47;;;;;;;4.05;1.75;;;;;;;;;;5095389;28;20208;-82
2022/10/03 00:09:36;;;;;;;4.70;1.50;;;;;;;;;;5095130;28;20197;-84
2022/10/03 00:12:18;;;;;;;6.55;2.00;;;;;;;;;;5094907;28;20211;-82
2022/10/03 00:14:54;;;;;;;2.97;1.50;;;;;;;;;;5095387;28;20261;-83
2022/10/03 00:17:26;;;;;;;3.58;1.65;;;;;;;;;;5094700;28;20282;-82
2022/10/03 00:20:05;;;;;;;6.57;1.90;;;;;;;;;;5094667;28;20200;-82
2022/10/03 00:22:39;;;;;;;3.15;1.50;;;;;;;;;;5095437;28;20211;-82
2022/10/03 00:25:30;;;;;;;4.60;1.88;;;;;;;;;;5094881;28;20246;-82
2022/10/03 00:28:14;;;;;;;3.50;1.75;;;;;;;;;;5095654;28;20588;-83
2022/10/03 00:30:55;;;;;;;3.67;1.83;;;;;;;;;;5098299;28;20216;-83
2022/10/03 00:33:33;;;;;;;2.35;1.38;;;;;;;;;;5099174;28;20220;-83
2022/10/03 00:36:07;;;;;;;3.08;1.55;;;;;;;;;;5098307;28;20200;-83
2022/10/03 00:39:27;;;;;;;4.55;2.00;;;;;;;;;;5098188;28;20291;-83
2022/10/03 00:42:49;;;;;;;3.92;1.58;;;;;;;;;;5095809;28;20207;-83
2022/10/03 00:45:45;;;;;;;3.38;1.77;;;;;;;;;;5095714;28;20224;-83
2022/10/03 00:48:59;;;;;;;5.05;1.90;;;;;;;;;;5095813;28;20201;-83
2022/10/03 00:51:41;;;;;;;4.22;2.00;;;;;;;;;;5095602;28;20295;-83
2022/10/03 00:54:31;;;;;;;4.60;1.90;;;;;;;;;;5094677;28;20228;-83
2022/10/03 00:57:19;;;;;;;3.05;1.35;;;;;;;;;;5095252;28;20210;-82
2022/10/03 01:00:11;;;;;;;2.35;1.50;;;;;;;;;;5095443;28;20204;-83
2022/10/03 01:02:50;;;;;;;2.85;1.80;;;;;;;;;;5095224;28;20688;-83
2022/10/03 01:05:30;;;;;;;3.90;1.92;;;;;;;;;;5094752;28;20227;-83
2022/10/03 01:08:27;;;;;;;4.97;2.60;;;;;;;;;;5095598;28;20202;-84
2022/10/03 01:11:02;;;;;;;5.78;3.55;;;;;;;;;;5094761;28;20289;-83
2022/10/03 01:13:41;;;;;;;2.08;1.65;;;;;;;;;;5094541;28;20717;-82
2022/10/03 01:16:25;;;;;;;1.35;1.17;;;;;;;;;;5094994;28;20200;-83
2022/10/03 01:19:03;;;;;;;2.83;1.90;;;;;;;;;;5094953;28;20204;-82
2022/10/03 01:21:41;;;;;;;7.38;1.73;;;;;;;;;;5094556;28;20291;-81
2022/10/03 01:24:26;;;;;;;5.20;2.50;;;;;;;;;;5094901;28;20224;-84
2022/10/03 01:26:58;;;;;;;4.10;1.70;;;;;;;;;;5095215;28;20207;-83
2022/10/03 01:32:29;;;;;;;6.90;2.17;;;;;;;;;;5094139;28;20253;-83
2022/10/03 01:35:10;;;;;;;4.45;1.80;;;;;;;;;;5095025;28;20230;-82
2022/10/03 01:37:44;;;;;;;5.15;1.60;;;;;;;;;;5095004;28;20200;-83
2022/10/03 01:40:21;;;;;;;3.20;1.63;;;;;;;;;;5094233;28;20299;-83
2022/10/03 01:43:04;;;;;;;4.80;2.28;;;;;;;;;;5094257;28;20192;-82
2022/10/03 01:45:46;;;;;;;2.40;1.50;;;;;;;;;;5094124;28;20216;-83
2022/10/03 01:48:22;;;;;;;5.15;1.88;;;;;;;;;;5094378;28;20231;-81
2022/10/03 01:50:58;;;;;;;4.18;1.63;;;;;;;;;;5093950;28;20195;-83
2022/10/03 01:53:36;;;;;;;5.32;2.58;;;;;;;;;;5093897;28;20211;-83
2022/10/03 01:56:12;;;;;;;1.45;1.13;;;;;;;;;;5094140;28;20194;-83
2022/10/03 01:58:49;;;;;;;11.82;4.07;;;;;;;;;;5093518;28;20200;-82
2022/10/03 02:01:26;;;;;;;2.70;2.00;;;;;;;;;;5093845;28;20700;-81
2022/10/03 02:04:01;;;;;;;4.07;1.88;;;;;;;;;;5094004;28;20617;-83
2022/10/03 02:06:40;;;;;;;1.92;0.90;;;;;;;;;;5096651;28;20199;-83
2022/10/03 02:09:18;;;;;;;4.60;1.70;;;;;;;;;;5097434;28;20233;-81
2022/10/03 02:12:02;;;;;;;3.55;1.83;;;;;;;;;;5097691;28;20277;-82
2022/10/03 02:14:40;;;;;;;1.80;1.20;;;;;;;;;;5097734;28;20607;-83
2022/10/03 02:17:21;;;;;;;2.83;1.40;;;;;;;;;;5097820;28;20207;-83
2022/10/03 02:20:01;;;;;;;2.97;1.50;;;;;;;;;;5097592;28;20211;-82
2022/10/03 02:22:34;;;;;;;5.53;2.00;;;;;;;;;;5097335;28;20278;-83
2022/10/03 02:25:26;;;;;;;8.55;2.00;;;;;;;;;;5097255;28;20242;-81
2022/10/03 02:28:17;;;;;;;3.90;1.45;;;;;;;;;;5097707;28;20198;-83
2022/10/03 02:31:06;;;;;;;3.58;1.65;;;;;;;;;;5097485;28;20200;-83
2022/10/03 02:34:22;;;;;;;6.78;2.10;;;;;;;;;;5097305;28;20216;-83
2022/10/03 02:37:07;;;;;;;2.10;1.23;;;;;;;;;;5097452;28;20214;-82
2022/10/03 02:40:30;;;;;;;2.78;1.77;;;;;;;;;;5097057;28;20199;-83
2022/10/03 02:43:46;;;;;;;3.80;1.52;;;;;;;;;;5097310;28;20204;-84
2022/10/03 02:46:54;;;;;;;3.17;1.42;;;;;;;;;;5097758;28;20251;-82
2022/10/03 02:50:22;;;;;;;5.13;2.03;;;;;;;;;;5097094;28;20288;-82
2022/10/03 02:53:41;;;;;;;2.03;1.30;;;;;;;;;;5091692;28;20304;-82
2022/10/03 02:57:02;;;;;;;2.40;1.35;;;;;;;;;;5097131;28;20602;-81
2022/10/03 03:00:11;;;;;;;13.57;2.85;;;;;;;;;;5096578;28;20580;-81
2022/10/03 03:03:15;;;;;;;3.55;1.80;;;;;;;;;;5069400;28;20211;-81
2022/10/03 03:06:47;;;;;;;3.83;1.75;;;;;;;;;;5064694;28;20223;-83
2022/10/03 03:09:53;;;;;;;5.07;1.85;;;;;;;;;;5089090;28;20230;-83
2022/10/03 03:12:55;;;;;;;8.15;1.77;;;;;;;;;;5096022;28;20207;-82
2022/10/03 03:16:04;;;;;;;1.73;1.25;;;;;;;;;;5096624;28;20344;-82
2022/10/03 03:18:36;;;;;;;1.70;1.23;;;;;;;;;;5095130;28;20193;-83
2022/10/03 03:21:21;;;;;;;3.97;2.15;;;;;;;;;;5096432;28;20287;-82
2022/10/03 03:24:30;;;;;;;6.30;2.38;;;;;;;;;;5096102;28;20217;-82
2022/10/03 03:27:38;;;;;;;3.15;2.08;;;;;;;;;;5074573;28;20288;-82
2022/10/03 03:30:10;;;;;;;1.55;1.15;;;;;;;;;;5096101;28;20196;-83
2022/10/03 03:32:53;;;;;;;2.75;1.70;;;;;;;;;;5095690;28;20215;-83
2022/10/03 03:35:33;;;;;;;8.80;2.00;;;;;;;;;;5096309;28;20633;-82
2022/10/03 03:38:13;;;;;;;9.63;2.28;;;;;;;;;;5095701;28;20632;-84
2022/10/03 03:40:51;;;;;;;7.30;2.35;;;;;;;;;;5096018;28;20592;-82
2022/10/03 03:44:09;;;;;;;3.58;1.80;;;;;;;;;;5095817;28;20196;-81
2022/10/03 03:46:54;;;;;;;1.92;1.58;;;;;;;;;;5088978;28;20192;-82
2022/10/03 03:49:40;;;;;;;4.88;2.00;;;;;;;;;;5095770;28;20287;-83
2022/10/03 03:52:24;;;;;;;5.43;2.20;;;;;;;;;;5095466;28;20200;-82
2022/10/03 03:55:47;;;;;;;3.63;1.73;;;;;;;;;;5096214;28;20694;-83
2022/10/03 03:58:26;;;;;;;5.95;1.98;;;;;;;;;;5061865;28;20200;-82
2022/10/03 04:01:18;;;;;;;4.30;2.08;;;;;;;;;;5095659;28;20202;-83
2022/10/03 04:03:58;;;;;;;6.90;3.00;;;;;;;;;;5095530;28;20249;-82
2022/10/03 04:06:46;;;;;;;4.22;2.15;;;;;;;;;;5095928;28;20259;-81
2022/10/03 04:09:39;;;;;;;5.97;2.42;;;;;;;;;;5095166;28;20240;-83
2022/10/03 04:12:14;;;;;;;6.60;2.35;;;;;;;;;;5095542;28;20205;-82
2022/10/03 04:15:17;;;;;;;5.15;1.75;;;;;;;;;;5095557;28;20318;-84
2022/10/03 04:21:00;;;;;;;4.38;1.98;;;;;;;;;;5095181;28;20202;-82
2022/10/03 04:23:57;;;;;;;3.38;1.90;;;;;;;;;;5094924;28;20207;-81
2022/10/03 04:26:38;;;;;;;7.00;2.58;;;;;;;;;;5095022;28;20201;-83
2022/10/03 04:29:33;;;;;;;4.60;2.92;;;;;;;;;;5094333;28;20462;-82
2022/10/03 04:32:10;;;;;;;5.90;2.70;;;;;;;;;;5095101;28;20212;-83
2022/10/03 04:34:50;;;;;;;5.22;1.58;;;;;;;;;;5095291;28;20226;-83
2022/10/03 04:37:31;;;;;;;6.50;2.55;;;;;;;;;;5094614;28;20225;-82
2022/10/03 04:40:17;;;;;;;8.13;2.25;;;;;;;;;;5094167;28;20211;-82
2022/10/03 04:42:53;;;;;;;6.68;1.80;;;;;;;;;;5094967;28;20571;-82
2022/10/03 04:45:43;;;;;;;6.90;2.70;;;;;;;;;;5094510;28;20223;-82
2022/10/03 04:48:16;;;;;;;3.65;2.00;;;;;;;;;;5094525;28;20196;-82
2022/10/03 04:50:50;;;;;;;2.85;1.83;;;;;;;;;;5094965;28;20294;-82
2022/10/03 04:53:39;;;;;;;9.50;1.88;;;;;;;;;;5094909;28;20553;-82
2022/10/03 04:56:38;;;;;;;3.13;1.52;;;;;;;;;;5094608;28;20592;-83
2022/10/03 04:59:27;;;;;;;7.18;2.22;;;;;;;;;;5094960;28;20208;-83
2022/10/03 05:02:00;;;;;;;7.30;1.92;;;;;;;;;;5094480;28;20652;-82
2022/10/03 05:04:36;;;;;;;11.65;2.30;;;;;;;;;;5094359;28;20228;-82
2022/10/03 05:07:11;;;;;;;3.88;1.65;;;;;;;;;;5094582;28;20211;-82
2022/10/03 05:09:49;;;;;;;2.67;1.38;;;;;;;;;;5094282;28;20655;-82
2022/10/03 05:12:26;;;;;;;4.38;1.85;;;;;;;;;;5094550;28;20196;-81
2022/10/03 05:15:13;;;;;;;2.70;2.03;;;;;;;;;;5095020;28;20224;-83
2022/10/03 05:17:48;;;;;;;4.97;2.33;;;;;;;;;;5094003;28;20196;-81
2022/10/03 05:20:46;;;;;;;6.05;2.10;;;;;;;;;;5093583;28;20206;-83
2022/10/03 05:23:24;;;;;;;4.15;2.15;;;;;;;;;;5092956;28;20222;-84
2022/10/03 05:26:04;;;;;;;3.95;2.13;;;;;;;;;;5094884;28;20199;-83
2022/10/03 05:28:39;;;;;;;4.93;2.42;;;;;;;;;;5094456;28;20204;-82
2022/10/03 05:31:24;;;;;;;5.35;2.00;;;;;;;;;;5094742;28;20253;-82
2022/10/03 05:34:02;;;;;;;5.47;2.40;;;;;;;;;;5094459;28;20613;-82
2022/10/03 05:36:36;;;;;;;6.22;2.13;;;;;;;;;;5094295;28;20223;-83
2022/10/03 05:39:26;;;;;;;6.97;2.75;;;;;;;;;;5093944;28;20222;-82
2022/10/03 05:41:56;;;;;;;5.82;3.08;;;;;;;;;;5096507;28;20204;-84
2022/10/03 05:44:38;;;;;;;3.25;2.25;;;;;;;;;;5100913;28;20220;-83
2022/10/03 05:47:43;;;;;;;4.63;2.78;;;;;;;;;;5100087;28;20290;-83
2022/10/03 05:50:40;;;;;;;2.95;1.40;;;;;;;;;;5099236;28;20226;-83
2022/10/03 05:53:50;;;;;;;3.80;2.55;;;;;;;;;;5099911;28;20200;-83
2022/10/03 05:56:34;;;;;;;6.78;2.88;;;;;;;;;;5023872;28;20258;-83
2022/10/03 05:59:36;;;;;;;4.97;2.40;;;;;;;;;;5098896;28;20211;-84
2022/10/03 06:03:08;;;;;;;6.38;2.05;;;;;;;;;;5100213;28;20206;-84
2022/10/03 06:05:55;;;;;;;5.25;2.05;;;;;;;;;;5016977;28;20286;-84
2022/10/03 06:08:51;;;;;;;4.80;2.72;;;;;;;;;;5099402;28;20208;-84
2022/10/03 06:11:44;;;;;;;2.80;1.92;;;;;;;;;;5100318;28;20210;-84
2022/10/03 06:14:50;;;;;;;8.40;3.00;;;;;;;;;;5100722;28;20227;-83
2022/10/03 06:17:56;;;;;;;11.60;2.20;;;;;;;;;;5068507;28;20259;-84
2022/10/03 06:21:02;;;;;;;2.88;1.85;;;;;;;;;;5099781;28;20287;-84
2022/10/03 06:24:37;;;;;;;3.17;1.80;;;;;;;;;;5089310;28;20226;-83
2022/10/03 06:28:06;;;;;;;8.38;2.60;;;;;;;;;;5017917;28;20291;-83
2022/10/03 06:31:43;;;;;;;4.00;2.15;;;;;;;;;;5008633;28;20212;-84
2022/10/03 06:34:51;;;;;;;4.07;2.30;;;;;;;;;;4996640;28;20231;-84
2022/10/03 06:38:08;;;;;;;4.75;2.42;;;;;;;;;;5082919;28;20220;-84
2022/10/03 06:41:17;;;;;;;2.88;1.73;;;;;;;;;;5098283;28;20230;-84
2022/10/03 06:44:11;;;;;;;4.53;1.85;;;;;;;;;;5099233;28;20696;-84
2022/10/03 06:47:21;;;;;;;1.98;1.50;;;;;;;;;;5100016;28;20204;-84
2022/10/03 06:50:35;;;;;;;4.55;2.30;;;;;;;;;;5099150;28;20204;-84
2022/10/03 06:53:32;;;;;;;4.25;2.63;;;;;;;;;;5075894;28;20664;-84
2022/10/03 06:56:43;;;;;;;3.83;2.38;;;;;;;;;;5103566;28;20196;-84
2022/10/03 06:59:51;;;;;;;3.28;2.08;;;;;;;;;;5071136;28;20207;-84
2022/10/03 07:02:55;;;;;;;4.10;2.33;;;;;;;;;;5102919;28;20283;-84
2022/10/03 07:05:54;;;;;;;4.40;2.25;;;;;;;;;;5062049;28;20283;-84
2022/10/03 07:09:01;;;;;;;4.03;2.50;;;;;;;;;;5102752;28;20193;-84
2022/10/03 07:11:56;;;;;;;6.38;3.05;;;;;;;;;;5102460;28;20208;-84
2022/10/03 07:15:21;;;;;;;7.20;2.80;;;;;;;;;;5102735;28;20224;-84
2022/10/03 07:18:20;;;;;;;3.63;2.70;;;;;;;;;;5103326;28;20231;-83
2022/10/03 07:21:19;;;;;;;3.63;2.17;;;;;;;;;;5102051;28;20630;-83
2022/10/03 07:24:16;;;;;;;3.50;2.45;;;;;;;;;;5089210;28;20695;-83
2022/10/03 07:27:25;;;;;;;3.88;2.30;;;;;;;;;;5102075;28;20728;-83
2022/10/03 07:30:10;;;;;;;8.10;3.72;;;;;;;;;;5101638;28;20210;-83
2022/10/03 07:33:26;;;;;;;4.40;2.53;;;;;;;;;;5101877;28;20592;-84
2022/10/03 07:39:41;;;;;;;8.50;2.90;;;;;;;;;;5102469;28;20263;-84
2022/10/03 07:42:47;;;;;;;3.78;2.10;;;;;;;;;;5101298;28;20199;-84
2022/10/03 07:45:36;;;;;;;6.25;2.53;;;;;;;;;;5102643;28;20226;-83
2022/10/03 07:48:55;;;;;;;6.43;2.63;;;;;;;;;;5101566;28;20207;-83
2022/10/03 07:51:29;;;;;;;5.90;3.22;;;;;;;;;;5101974;28;20197;-83
2022/10/03 07:54:44;;;;;;;3.78;2.50;;;;;;;;;;5101793;28;20268;-84
2022/10/03 07:57:23;;;;;;;3.08;2.65;;;;;;;;;;5097634;28;20220;-85
2022/10/03 08:00:16;;;;;;;3.58;2.22;;;;;;;;;;5098133;28;20193;-84
2022/10/03 08:03:28;;;;;;;2.60;2.00;;;;;;;;;;5098078;28;20211;-84
2022/10/03 08:06:15;;;;;;;5.55;2.70;;;;;;;;;;5072454;28;20200;-84
2022/10/03 08:09:32;;;;;;;2.13;1.88;;;;;;;;;;5098417;28;20279;-84
2022/10/03 08:12:41;;;;;;;6.70;2.55;;;;;;;;;;5015336;28;20254;-85
2022/10/03 08:15:13;;;;;;;5.43;2.80;;;;;;;;;;5098914;28;20216;-85
2022/10/03 08:18:16;;;;;;;3.38;2.50;;;;;;;;;;5098783;28;20216;-84
2022/10/03 08:20:57;;;;;;;4.75;2.40;;;;;;;;;;5098940;28;20214;-84
2022/10/03 08:24:12;;;;;;;7.75;2.70;;;;;;;;;;5100055;28;20654;-85
2022/10/03 08:26:58;;;;;;;5.00;2.53;;;;;;;;;;5097773;28;20208;-84
2022/10/03 08:29:57;;;;;;;5.78;2.58;;;;;;;;;;5097896;28;20267;-85
2022/10/03 08:33:04;;;;;;;5.65;2.38;;;;;;;;;;5063914;28;20207;-84
2022/10/03 08:36:25;;;;;;;4.15;2.90;;;;;;;;;;5089307;28;20234;-84
2022/10/03 08:39:11;;;;;;;4.75;3.35;;;;;;;;;;5084694;28;20220;-84
2022/10/03 08:42:17;;;;;;;3.88;2.20;;;;;;;;;;5098476;28;20630;-84
2022/10/03 08:45:19;;;;;;;3.10;2.03;;;;;;;;;;5099203;28;20227;-84
2022/10/03 08:48:47;;;;;;;5.63;2.35;;;;;;;;;;5098171;28;20176;-84
2022/10/03 08:51:50;;;;;;;3.58;1.95;;;;;;;;;;5099151;28;20199;-83
2022/10/03 08:54:58;;;;;;;6.05;2.78;;;;;;;;;;5098581;28;20230;-84
2022/10/03 08:57:55;;;;;;;4.50;2.35;;;;;;;;;;5093094;28;20288;-84
2022/10/03 09:00:23;;;;;;;6.85;2.83;;;;;;;;;;5098451;28;20283;-84
2022/10/03 09:03:39;;;;;;;4.68;2.38;;;;;;;;;;5097786;28;20204;-84
2022/10/03 09:06:51;;;;;;;4.32;2.35;;;;;;;;;;5064477;28;20272;-84
2022/10/03 09:10:10;;;;;;;4.10;1.70;;;;;;;;;;5098198;28;20289;-84
2022/10/03 09:13:29;;;;;;;3.92;2.17;;;;;;;;;;5097893;28;20210;-84
2022/10/03 09:16:43;;;;;;;3.50;2.22;;;;;;;;;;5098289;28;20204;-84
2022/10/03 09:19:45;;;;;;;3.35;2.30;;;;;;;;;;5097938;28;20249;-84
2022/10/03 09:22:58;;;;;;;6.20;1.70;;;;;;;;;;5098418;28;20207;-84
2022/10/03 09:25:39;;;;;;;3.10;2.15;;;;;;;;;;5075583;28;20227;-84
2022/10/03 09:29:21;;;;;;;3.38;1.70;;;;;;;;;;5098903;28;20211;-84
2022/10/03 09:32:41;;;;;;;3.53;2.20;;;;;;;;;;5039024;28;20202;-84
2022/10/03 09:35:46;;;;;;;3.70;2.08;;;;;;;;;;4979093;28;20263;-85
2022/10/03 09:39:13;;;;;;;4.30;2.40;;;;;;;;;;5099919;28;20281;-84
2022/10/03 09:42:24;;;;;;;4.13;2.08;;;;;;;;;;5100827;28;20215;-84
2022/10/03 09:48:45;;;;;;;3.70;2.22;;;;;;;;;;5131899;27;20617;-83
2022/10/03 09:51:33;;;;;;;3.53;2.13;;;;;;;;;;5079275;28;20208;-83
2022/10/03 09:54:44;;;;;;;3.75;1.83;;;;;;;;;;5111393;28;20187;-82
2022/10/03 09:58:07;;;;;;;3.17;2.05;;;;;;;;;;5111161;28;20217;-82
2022/10/03 10:00:58;;;;;;;2.55;1.70;;;;;;;;;;5062762;28;20225;-83
2022/10/03 10:04:15;;;;;;;4.20;1.83;;;;;;;;;;5110574;28;20231;-82
2022/10/03 10:07:21;;;;;;;3.42;1.75;;;;;;;;;;5110870;28;20575;-84
2022/10/03 10:10:05;;;;;;;3.17;1.85;;;;;;;;;;5110636;28;20626;-83
2022/10/03 10:13:14;;;;;;;2.50;1.90;;;;;;;;;;5110698;28;20190;-84
2022/10/03 10:16:08;;;;;;;5.53;2.03;;;;;;;;;;5088032;28;20226;-83
2022/10/03 10:19:22;;;;;;;2.88;1.77;;;;;;;;;;5111166;28;20644;-85
2022/10/03 10:22:29;;;;;;;3.28;1.63;;;;;;;;;;5047934;28;20196;-84
2022/10/03 10:25:47;;;;;;;1.95;1.35;;;;;;;;;;5087751;28;20253;-83
2022/10/03 10:29:14;;;;;;;3.03;1.85;;;;;;;;;;5107205;28;20223;-82
2022/10/03 10:32:18;;;;;;;3.42;1.77;;;;;;;;;;5110452;28;20199;-83
2022/10/03 10:35:22;;;;;;;4.10;1.85;;;;;;;;;;5110222;28;20184;-83
2022/10/03 10:38:25;;;;;;;1.70;1.30;;;;;;;;;;5109789;28;20184;-82
2022/10/03 10:41:44;;;;;;;3.63;2.22;;;;;;;;;;5110214;28;20714;-83
2022/10/03 10:45:11;;;;;;;1.80;1.58;;;;;;;;;;5108348;28;20203;-84
2022/10/03 10:48:35;;;;;;;2.33;1.60;;;;;;;;;;5100585;28;20216;-84
2022/10/03 10:52:10;;;;;;;5.22;1.92;;;;;;;;;;5078716;28;20200;-84
2022/10/03 10:55:47;;;;;;;5.25;2.35;;;;;;;;;;5110667;28;20620;-84
2022/10/03 10:59:23;;;;;;;3.08;1.25;;;;;;;;;;5081730;28;20602;-84
2022/10/03 11:02:50;;;;;;;6.32;1.50;;;;;;;;;;5034160;28;20208;-82
2022/10/03 11:06:22;;;;;;;4.88;2.25;;;;;;;;;;5039166;28;20199;-84
2022/10/03 11:09:28;;;;;;;3.05;1.55;;;;;;;;;;5095945;28;20597;-82
2022/10/03 11:12:42;;;;;;;10.88;2.08;;;;;;;;;;5096689;28;20574;-84
2022/10/03 11:15:54;;;;;;;2.80;1.50;;;;;;;;;;5096565;28;20658;-83
2022/10/03 11:19:35;;;;;;;1.88;1.30;;;;;;;;;;5095884;28;20692;-84
2022/10/03 11:22:54;;;;;;;3.03;1.50;;;;;;;;;;5019752;28;20203;-84
2022/10/03 11:26:21;;;;;;;6.97;1.73;;;;;;;;;;5095778;28;20189;-83
2022/10/03 11:29:39;;;;;;;2.25;1.00;;;;;;;;;;5077461;28;20220;-84
2022/10/03 11:33:13;;;;;;;2.05;1.00;;;;;;;;;;5095811;28;20185;-83
2022/10/03 11:36:20;;;;;;;1.17;1.00;;;;;;;;;;5095660;28;20284;-83
2022/10/03 11:38:55;;;;;;;1.58;1.30;;;;;;;;;;5067922;28;20208;-83
2022/10/03 11:41:40;;;;;;;0.95;0.90;;;;;;;;;;5095292;28;20218;-84
2022/10/03 11:44:26;;;;;;;5.18;1.48;;;;;;;;;;5095532;28;20181;-83
2022/10/03 11:47:43;;;;;;;1.45;1.20;;;;;;;;;;5095864;28;20285;-83
2022/10/03 11:50:33;;;;;;;2.00;1.17;;;;;;;;;;5095334;28;20227;-81
2022/10/03 11:53:20;;;;;;;4.53;1.35;;;;;;;;;;5095625;28;20196;-82
2022/10/03 11:55:55;;;;;;;5.95;1.77;;;;;;;;;;5095542;28;20191;-83
2022/10/03 11:58:51;;;;;;;2.85;1.10;;;;;;;;;;5095716;28;20651;-83
2022/10/03 12:01:29;;;;;;;4.05;1.60;;;;;;;;;;5085154;22;20229;-85
2022/10/03 12:04:07;;;;;;;1.80;1.23;;;;;;;;;;5058417;28;20256;-84
2022/10/03 12:09:55;;;;;;;4.20;1.38;;;;;;;;;;5054519;28;20576;-84
2022/10/03 12:12:34;;;;;;;2.88;1.90;;;;;;;;;;5055630;28;20224;-86
2022/10/03 12:15:23;;;;;;;2.72;1.25;;;;;;;;;;5056399;28;20253;-85
2022/10/03 12:18:05;;;;;;;1.95;1.48;;;;;;;;;;5056469;28;20284;-85
2022/10/03 12:20:44;;;;;;;2.05;1.10;;;;;;;;;;5058604;28;20286;-84
2022/10/03 12:23:26;;;;;;;3.50;1.50;;;;;;;;;;5057366;28;20197;-85
2022/10/03 12:25:54;;;;;;;2.38;1.35;;;;;;;;;;5057155;28;20197;-85
2022/10/03 12:28:24;;;;;;;2.90;1.33;;;;;;;;;;5057167;28;20753;-85
2022/10/03 12:30:56;;;;;;;3.20;1.20;;;;;;;;;;5057036;28;20261;-83
2022/10/03 12:33:46;;;;;;;4.30;1.42;;;;;;;;;;5056345;28;20288;-85
2022/10/03 12:36:17;;;;;;;3.10;1.33;;;;;;;;;;5055990;28;20198;-84
2022/10/03 12:38:56;;;;;;;1.75;1.17;;;;;;;;;;5055998;28;20297;-85
2022/10/03 12:41:42;;;;;;;3.40;1.40;;;;;;;;;;5054473;28;20201;-85
2022/10/03 12:44:27;;;;;;;5.82;2.13;;;;;;;;;;5055808;28;20712;-85
2022/10/03 12:47:06;;;;;;;1.50;0.93;;;;;;;;;;5056490;28;20332;-84
2022/10/03 12:49:50;;;;;;;1.13;0.80;;;;;;;;;;5056117;28;20587;-84
2022/10/03 12:52:21;;;;;;;1.50;1.08;;;;;;;;;;5055795;28;20212;-84
2022/10/03 12:54:56;;;;;;;1.23;1.00;;;;;;;;;;5055701;28;20287;-84
2022/10/03 12:57:48;;;;;;;2.35;1.20;;;;;;;;;;5057466;28;20305;-85
2022/10/03 13:00:22;;;;;;;3.35;1.25;;;;;;;;;;5056905;28;20209;-84
2022/10/03 13:03:16;;;;;;;1.83;1.10;;;;;;;;;;5058095;28;20625;-84
2022/10/03 13:06:10;;;;;;;1.35;1.20;;;;;;;;;;5054910;28;20271;-84
2022/10/03 13:08:50;;;;;;;2.15;1.63;;;;;;;;;;5056643;28;20225;-85
2022/10/03 13:11:31;;;;;;;3.47;1.20;;;;;;;;;;5057059;28;20205;-85
2022/10/03 13:14:21;;;;;;;2.90;1.27;;;;;;;;;;5056000;28;20256;-82
2022/10/03 13:17:00;;;;;;;1.17;1.08;;;;;;;;;;5056346;28;20190;-85
2022/10/03 13:19:37;;;;;;;2.30;1.55;;;;;;;;;;5056988;28;20201;-84
2022/10/03 13:22:20;;;;;;;1.30;1.02;;;;;;;;;;5054780;28;20201;-84
2022/10/03 13:24:55;;;;;;;2.80;1.27;;;;;;;;;;5056429;28;20316;-84
2022/10/03 13:27:35;;;;;;;1.52;0.95;;;;;;;;;;5057275;28;20201;-84
2022/10/03 13:30:13;;;;;;;2.00;1.17;;;;;;;;;;5057002;28;20221;-84
2022/10/03 13:32:43;;;;;;;1.30;1.15;;;;;;;;;;5056996;28;20571;-84
2022/10/03 13:38:58;;;;;;;2.97;1.40;;;;;;;;;;5057593;28;20205;-84
2022/10/03 13:41:50;;;;;;;1.75;1.10;;;;;;;;;;5057737;28;20211;-84
2022/10/03 13:44:22;;;;;;;2.60;1.40;;;;;;;;;;5057805;28;20228;-84
2022/10/03 13:46:54;;;;;;;1.60;1.40;;;;;;;;;;5057805;28;20209;-84
2022/10/03 13:49:31;;;;;;;3.83;1.42;;;;;;;;;;5057150;28;20317;-82
2022/10/03 13:52:06;;;;;;;1.17;1.08;;;;;;;;;;5057394;28;20211;-84
2022/10/03 13:55:08;;;;;;;2.28;1.33;;;;;;;;;;5058309;28;20226;-85
2022/10/03 13:57:42;;;;;;;1.95;0.88;;;;;;;;;;5056472;28;20223;-85
2022/10/03 14:00:11;;;;;;;1.63;1.10;;;;;;;;;;5056493;28;20653;-84
2022/10/03 14:03:05;;;;;;;4.07;1.23;;;;;;;;;;5058216;28;20232;-84
2022/10/03 14:06:03;;;;;;;3.22;1.20;;;;;;;;;;5052642;28;20218;-84
2022/10/03 14:08:56;;;;;;;6.47;2.17;;;;;;;;;;5056717;28;20307;-84
2022/10/03 14:11:27;;;;;;;3.58;1.52;;;;;;;;;;5056901;28;20201;-84
2022/10/03 14:14:43;;;;;;;2.65;1.42;;;;;;;;;;5054669;28;20234;-84
2022/10/03 14:17:15;;;;;;;1.23;1.02;;;;;;;;;;5057143;28;20606;-84
2022/10/03 14:19:57;;;;;;;1.30;1.20;;;;;;;;;;5057542;28;20209;-84
2022/10/03 14:22:49;;;;;;;2.20;1.30;;;;;;;;;;5057468;28;20198;-84
2022/10/03 14:25:25;;;;;;;2.03;1.45;;;;;;;;;;5056849;28;20225;-85
2022/10/03 14:27:54;;;;;;;2.67;2.03;;;;;;;;;;5056883;28;20762;-84
2022/10/03 14:30:24;;;;;;;3.75;2.00;;;;;;;;;;5057027;28;20222;-85
2022/10/03 14:33:16;;;;;;;2.30;1.80;;;;;;;;;;5057631;28;20269;-84
2022/10/03 14:35:55;;;;;;;1.73;1.50;;;;;;;;;;5059948;28;20308;-83
2022/10/03 14:41:40;;;;;;;2.40;1.60;;;;;;;;;;5061113;28;20331;-84
2022/10/03 14:44:11;;;;;;;1.35;1.25;;;;;;;;;;5061026;28;20635;-85
2022/10/03 14:46:45;;;;;;;0.90;0.80;;;;;;;;;;5060929;28;20201;-84
2022/10/03 14:49:19;;;;;;;1.50;1.13;;;;;;;;;;5061257;28;20227;-84
2022/10/03 14:51:51;;;;;;;1.42;0.90;;;;;;;;;;5061063;28;20723;-85
2022/10/03 14:54:22;;;;;;;1.17;1.05;;;;;;;;;;5060582;28;20222;-84
2022/10/03 14:56:52;;;;;;;4.63;1.45;;;;;;;;;;5061194;28;20201;-85
2022/10/03 14:59:25;;;;;;;1.88;1.05;;;;;;;;;;5061203;28;20209;-84
2022/10/03 15:01:54;;;;;;;2.08;1.35;;;;;;;;;;5061234;28;20588;-84
2022/10/03 15:04:29;;;;;;;4.78;1.25;;;;;;;;;;5060459;28;20456;-83
2022/10/03 15:06:59;;;;;;;2.85;1.55;;;;;;;;;;5062051;28;20288;-85
2022/10/03 15:09:32;;;;;;;1.23;1.00;;;;;;;;;;5061706;28;20312;-84
2022/10/03 15:12:15;;;;;;;2.03;1.15;;;;;;;;;;5060945;28;20679;-84
2022/10/03 15:14:46;;;;;;;1.20;1.10;;;;;;;;;;5060776;28;20331;-85
2022/10/03 15:17:20;;;;;;;1.65;1.10;;;;;;;;;;5060560;28;20285;-84
2022/10/03 15:19:53;;;;;;;2.38;1.88;;;;;;;;;;5061006;28;20229;-84
2022/10/03 15:22:31;;;;;;;1.67;1.20;;;;;;;;;;5059147;28;20284;-84
2022/10/03 15:25:05;;;;;;;1.02;1.00;;;;;;;;;;5057295;28;20231;-85
2022/10/03 15:27:36;;;;;;;1.10;0.90;;;;;;;;;;5055269;28;20201;-84
2022/10/03 15:30:07;;;;;;;0.82;0.75;;;;;;;;;;5054605;28;20758;-83
2022/10/03 15:32:37;;;;;;;1.15;0.80;;;;;;;;;;5055311;28;20596;-84
2022/10/03 15:35:07;;;;;;;1.08;0.88;;;;;;;;;;5055529;28;20260;-84
2022/10/03 15:37:40;;;;;;;1.55;1.10;;;;;;;;;;5055309;28;20280;-84
2022/10/03 15:40:21;;;;;;;0.60;0.60;;;;;;;;;;5054639;28;20576;-84
2022/10/03 15:43:00;;;;;;;1.15;0.68;;;;;;;;;;5054467;28;20204;-84
2022/10/03 15:45:30;;;;;;;0.98;0.93;;;;;;;;;;5053340;28;20228;-85
2022/10/03 15:48:02;;;;;;;2.13;1.10;;;;;;;;;;5054013;28;20210;-83
2022/10/03 15:50:32;;;;;;;3.67;1.55;;;;;;;;;;5054398;28;20593;-84
2022/10/03 15:53:09;;;;;;;1.17;1.08;;;;;;;;;;5054288;28;20205;-84
2022/10/03 15:55:41;;;;;;;0.80;0.80;;;;;;;;;;5054100;28;20252;-84
2022/10/03 15:58:16;;;;;;;1.33;0.85;;;;;;;;;;5053850;28;20233;-83
2022/10/03 16:00:48;;;;;;;1.95;0.90;;;;;;;;;;5054534;28;20563;-84
2022/10/03 16:03:21;;;;;;;1.42;0.90;;;;;;;;;;5054719;28;20208;-84
2022/10/03 16:06:00;;;;;;;1.48;1.20;;;;;;;;;;5054616;28;20208;-84
2022/10/03 16:08:31;;;;;;;1.85;1.10;;;;;;;;;;5054076;28;20200;-84
2022/10/03 16:11:08;;;;;;;1.80;1.00;;;;;;;;;;5054503;28;20232;-84
2022/10/03 16:13:39;;;;;;;3.67;1.88;;;;;;;;;;5054844;28;20212;-83
2022/10/03 16:16:18;;;;;;;9.43;6.53;;;;;;;;;;5054687;28;20289;-84
2022/10/03 16:18:57;;;;;;;6.22;3.30;;;;;;;;;;5054332;28;20209;-84
2022/10/03 16:21:42;;;;;;;2.33;2.13;;;;;;;;;;5054042;28;20201;-83
2022/10/03 16:24:21;;;;;;;7.03;1.88;;;;;;;;;;5054607;28;20336;-84
2022/10/03 16:26:54;;;;;;;2.05;1.70;;;;;;;;;;5054052;28;20215;-84
2022/10/03 16:29:26;;;;;;;2.08;1.33;;;;;;;;;;5054311;28;20209;-84
2022/10/03 16:31:57;;;;;;;1.25;0.90;;;;;;;;;;5052996;28;20212;-84
2022/10/03 16:34:26;;;;;;;1.20;0.95;;;;;;;;;;5053659;28;20731;-84
2022/10/03 16:36:54;;;;;;;2.00;1.35;;;;;;;;;;5059155;28;20232;-84
2022/10/03 16:39:25;;;;;;;1.55;0.98;;;;;;;;;;5060204;28;20580;-83
2022/10/03 16:41:54;;;;;;;1.98;1.13;;;;;;;;;;5057069;28;20208;-83
2022/10/03 16:44:27;;;;;;;1.90;1.13;;;;;;;;;;5061691;28;20257;-83
2022/10/03 16:46:58;;;;;;;1.30;1.00;;;;;;;;;;5060996;28;20202;-83
2022/10/03 16:52:24;;;;;;;2.47;1.10;;;;;;;;;;5053858;28;20205;-83
2022/10/03 16:55:00;;;;;;;3.35;2.05;;;;;;;;;;5053788;28;20222;-83
2022/10/03 16:57:36;;;;;;;3.30;2.17;;;;;;;;;;5053121;28;20201;-83
2022/10/03 17:00:07;;;;;;;2.72;1.75;;;;;;;;;;5053529;28;20212;-82
2022/10/03 17:02:37;;;;;;;5.75;2.33;;;;;;;;;;5053097;28;20292;-83
2022/10/03 17:05:08;;;;;;;2.92;1.67;;;;;;;;;;5049319;28;20213;-83
2022/10/03 17:07:40;;;;;;;4.10;2.13;;;;;;;;;;5053053;28;20201;-83
2022/10/03 17:10:28;;;;;;;3.60;1.67;;;;;;;;;;5045161;28;20650;-83
2022/10/03 17:12:59;;;;;;;5.30;1.55;;;;;;;;;;5053074;28;20237;-82
2022/10/03 17:15:32;;;;;;;2.13;1.30;;;;;;;;;;5052866;28;20222;-82
2022/10/03 17:18:11;;;;;;;1.55;1.10;;;;;;;;;;5052763;28;20233;-84
2022/10/03 17:20:46;;;;;;;2.15;1.17;;;;;;;;;;5053776;28;20201;-82
2022/10/03 17:23:26;;;;;;;2.25;2.05;;;;;;;;;;5071118;28;20597;-83
2022/10/03 17:26:05;;;;;;;2.75;2.55;;;;;;;;;;5078077;28;20265;-83